sensor_id;sensor_type;location;lat;lon;timestamp;P1;durP1;ratioP1;P2;durP2;ratioP2
77736;SDS011;66903;59.926;30.404;2023-07-09T00:00:40;5.82;;;1.25;;
77736;SDS011;66903;59.926;30.404;2023-07-09T00:16:19;4.05;;;1.00;;
77736;SDS011;66903;59.926;30.404;2023-07-09T00:21:39;3.85;;;1.10;;
77736;SDS011;66903;59.926;30.404;2023-07-09T00:27:18;2.17;;;0.80;;
77736;SDS011;66903;59.926;30.404;2023-07-09T00:43:38;3.15;;;1.10;;
77736;SDS011;66903;59.926;30.404;2023-07-09T00:54:36;2.60;;;0.80;;
77736;SDS011;66903;59.926;30.404;2023-07-09T00:59:57;2.65;;;1.10;;
77736;SDS011;66903;59.926;30.404;2023-07-09T01:05:22;3.88;;;0.93;;
77736;SDS011;66903;59.926;30.404;2023-07-09T01:10:41;2.33;;;0.90;;
77736;SDS011;66903;59.926;30.404;2023-07-09T01:15:42;2.83;;;1.00;;
77736;SDS011;66903;59.926;30.404;2023-07-09T01:32:19;2.28;;;0.80;;
77736;SDS011;66903;59.926;30.404;2023-07-09T01:37:38;4.10;;;1.10;;
77736;SDS011;66903;59.926;30.404;2023-07-09T01:42:39;3.72;;;1.10;;
77736;SDS011;66903;59.926;30.404;2023-07-09T01:53:23;2.38;;;0.90;;
77736;SDS011;66903;59.926;30.404;2023-07-09T01:58:26;2.40;;;0.90;;
77736;SDS011;66903;59.926;30.404;2023-07-09T02:03:30;2.53;;;1.00;;
77736;SDS011;66903;59.926;30.404;2023-07-09T02:08:31;3.50;;;1.00;;
77736;SDS011;66903;59.926;30.404;2023-07-09T02:13:32;3.58;;;0.90;;
77736;SDS011;66903;59.926;30.404;2023-07-09T02:18:34;2.55;;;0.82;;
77736;SDS011;66903;59.926;30.404;2023-07-09T02:23:34;2.97;;;0.80;;
77736;SDS011;66903;59.926;30.404;2023-07-09T02:28:35;2.92;;;1.00;;
77736;SDS011;66903;59.926;30.404;2023-07-09T02:33:35;3.30;;;1.00;;
77736;SDS011;66903;59.926;30.404;2023-07-09T02:38:36;2.17;;;0.75;;
77736;SDS011;66903;59.926;30.404;2023-07-09T02:43:37;2.95;;;0.88;;
77736;SDS011;66903;59.926;30.404;2023-07-09T02:48:56;3.97;;;0.80;;
77736;SDS011;66903;59.926;30.404;2023-07-09T02:54:00;2.63;;;0.82;;
77736;SDS011;66903;59.926;30.404;2023-07-09T02:59:02;2.90;;;0.90;;
77736;SDS011;66903;59.926;30.404;2023-07-09T03:04:03;2.22;;;0.80;;
77736;SDS011;66903;59.926;30.404;2023-07-09T03:09:08;2.35;;;0.85;;
77736;SDS011;66903;59.926;30.404;2023-07-09T03:14:09;1.27;;;0.55;;
77736;SDS011;66903;59.926;30.404;2023-07-09T03:19:28;1.95;;;0.77;;
77736;SDS011;66903;59.926;30.404;2023-07-09T03:24:29;6.97;;;0.90;;
77736;SDS011;66903;59.926;30.404;2023-07-09T03:29:29;3.05;;;0.82;;
77736;SDS011;66903;59.926;30.404;2023-07-09T03:34:30;2.15;;;0.80;;
77736;SDS011;66903;59.926;30.404;2023-07-09T03:39:30;2.90;;;0.90;;
77736;SDS011;66903;59.926;30.404;2023-07-09T03:44:31;2.63;;;0.90;;
77736;SDS011;66903;59.926;30.404;2023-07-09T03:49:49;2.30;;;0.77;;
77736;SDS011;66903;59.926;30.404;2023-07-09T03:54:50;2.58;;;0.88;;
77736;SDS011;66903;59.926;30.404;2023-07-09T04:00:09;2.15;;;0.80;;
77736;SDS011;66903;59.926;30.404;2023-07-09T04:05:10;2.97;;;0.90;;
77736;SDS011;66903;59.926;30.404;2023-07-09T04:10:11;3.03;;;0.93;;
77736;SDS011;66903;59.926;30.404;2023-07-09T04:15:30;1.35;;;0.52;;
77736;SDS011;66903;59.926;30.404;2023-07-09T04:20:31;2.25;;;0.80;;
77736;SDS011;66903;59.926;30.404;2023-07-09T04:25:50;2.33;;;0.80;;
77736;SDS011;66903;59.926;30.404;2023-07-09T04:31:09;2.60;;;0.90;;
77736;SDS011;66903;59.926;30.404;2023-07-09T04:36:27;2.40;;;0.80;;
77736;SDS011;66903;59.926;30.404;2023-07-09T04:41:28;1.92;;;0.70;;
77736;SDS011;66903;59.926;30.404;2023-07-09T04:46:28;2.13;;;0.70;;
77736;SDS011;66903;59.926;30.404;2023-07-09T04:51:29;1.35;;;0.63;;
77736;SDS011;66903;59.926;30.404;2023-07-09T04:56:29;2.58;;;1.08;;
77736;SDS011;66903;59.926;30.404;2023-07-09T05:01:30;2.38;;;0.80;;
77736;SDS011;66903;59.926;30.404;2023-07-09T05:06:31;2.05;;;0.80;;
77736;SDS011;66903;59.926;30.404;2023-07-09T05:11:33;2.03;;;0.80;;
77736;SDS011;66903;59.926;30.404;2023-07-09T05:16:35;1.35;;;0.60;;
77736;SDS011;66903;59.926;30.404;2023-07-09T05:21:36;1.95;;;0.60;;
77736;SDS011;66903;59.926;30.404;2023-07-09T05:26:55;0.93;;;0.50;;
77736;SDS011;66903;59.926;30.404;2023-07-09T05:31:55;1.65;;;0.75;;
77736;SDS011;66903;59.926;30.404;2023-07-09T05:36:56;2.42;;;0.77;;
77736;SDS011;66903;59.926;30.404;2023-07-09T05:41:56;1.33;;;0.47;;
77736;SDS011;66903;59.926;30.404;2023-07-09T05:46:57;1.60;;;0.50;;
77736;SDS011;66903;59.926;30.404;2023-07-09T05:51:58;1.67;;;0.60;;
77736;SDS011;66903;59.926;30.404;2023-07-09T05:56:58;1.65;;;0.60;;
77736;SDS011;66903;59.926;30.404;2023-07-09T06:01:59;1.17;;;0.50;;
77736;SDS011;66903;59.926;30.404;2023-07-09T06:07:18;1.10;;;0.50;;
77736;SDS011;66903;59.926;30.404;2023-07-09T06:12:36;0.70;;;0.40;;
77736;SDS011;66903;59.926;30.404;2023-07-09T06:17:55;1.00;;;0.55;;
77736;SDS011;66903;59.926;30.404;2023-07-09T06:22:56;1.23;;;0.50;;
77736;SDS011;66903;59.926;30.404;2023-07-09T06:27:57;1.33;;;0.52;;
77736;SDS011;66903;59.926;30.404;2023-07-09T06:33:17;1.55;;;0.60;;
77736;SDS011;66903;59.926;30.404;2023-07-09T06:38:19;0.68;;;0.40;;
77736;SDS011;66903;59.926;30.404;2023-07-09T06:43:19;1.52;;;0.55;;
77736;SDS011;66903;59.926;30.404;2023-07-09T06:53:40;1.52;;;0.52;;
77736;SDS011;66903;59.926;30.404;2023-07-09T06:59:18;1.10;;;0.52;;
77736;SDS011;66903;59.926;30.404;2023-07-09T07:04:18;2.03;;;0.60;;
77736;SDS011;66903;59.926;30.404;2023-07-09T07:09:18;2.50;;;0.50;;
77736;SDS011;66903;59.926;30.404;2023-07-09T07:14:56;2.00;;;0.70;;
77736;SDS011;66903;59.926;30.404;2023-07-09T07:30:58;0.55;;;0.35;;
77736;SDS011;66903;59.926;30.404;2023-07-09T07:41:40;2.60;;;0.60;;
77736;SDS011;66903;59.926;30.404;2023-07-09T07:52:00;1.70;;;0.60;;
77736;SDS011;66903;59.926;30.404;2023-07-09T07:57:19;1.85;;;0.77;;
77736;SDS011;66903;59.926;30.404;2023-07-09T08:02:20;1.15;;;0.57;;
77736;SDS011;66903;59.926;30.404;2023-07-09T08:07:20;2.00;;;0.50;;
77736;SDS011;66903;59.926;30.404;2023-07-09T08:12:21;1.42;;;0.38;;
77736;SDS011;66903;59.926;30.404;2023-07-09T08:22:40;1.77;;;0.50;;
77736;SDS011;66903;59.926;30.404;2023-07-09T08:27:59;0.98;;;0.43;;
77736;SDS011;66903;59.926;30.404;2023-07-09T08:33:37;0.88;;;0.38;;
77736;SDS011;66903;59.926;30.404;2023-07-09T08:38:56;1.65;;;0.43;;
77736;SDS011;66903;59.926;30.404;2023-07-09T09:01:23;1.60;;;0.63;;
77736;SDS011;66903;59.926;30.404;2023-07-09T09:06:44;1.55;;;0.50;;
77736;SDS011;66903;59.926;30.404;2023-07-09T09:17:18;0.95;;;0.40;;
77736;SDS011;66903;59.926;30.404;2023-07-09T09:22:47;1.70;;;0.63;;
77736;SDS011;66903;59.926;30.404;2023-07-09T09:28:07;1.60;;;0.40;;
77736;SDS011;66903;59.926;30.404;2023-07-09T09:33:08;1.27;;;0.50;;
77736;SDS011;66903;59.926;30.404;2023-07-09T09:38:19;0.77;;;0.32;;
77736;SDS011;66903;59.926;30.404;2023-07-09T09:49:16;1.15;;;0.40;;
77736;SDS011;66903;59.926;30.404;2023-07-09T09:54:18;1.30;;;0.50;;
77736;SDS011;66903;59.926;30.404;2023-07-09T09:59:39;1.67;;;0.40;;
77736;SDS011;66903;59.926;30.404;2023-07-09T10:04:39;0.63;;;0.35;;
77736;SDS011;66903;59.926;30.404;2023-07-09T10:09:47;0.70;;;0.30;;
77736;SDS011;66903;59.926;30.404;2023-07-09T10:41:46;0.73;;;0.38;;
77736;SDS011;66903;59.926;30.404;2023-07-09T10:47:09;0.38;;;0.30;;
77736;SDS011;66903;59.926;30.404;2023-07-09T10:58:00;0.50;;;0.22;;
77736;SDS011;66903;59.926;30.404;2023-07-09T11:03:50;0.55;;;0.30;;
77736;SDS011;66903;59.926;30.404;2023-07-09T11:08:35;1.02;;;0.40;;
77736;SDS011;66903;59.926;30.404;2023-07-09T11:13:43;0.55;;;0.22;;
77736;SDS011;66903;59.926;30.404;2023-07-09T11:18:55;0.32;;;0.30;;
77736;SDS011;66903;59.926;30.404;2023-07-09T11:35:30;0.68;;;0.30;;
77736;SDS011;66903;59.926;30.404;2023-07-09T11:41:00;0.65;;;0.32;;
77736;SDS011;66903;59.926;30.404;2023-07-09T11:52:11;0.20;;;0.20;;
77736;SDS011;66903;59.926;30.404;2023-07-09T12:02:32;0.63;;;0.50;;
77736;SDS011;66903;59.926;30.404;2023-07-09T12:07:34;1.08;;;0.50;;
77736;SDS011;66903;59.926;30.404;2023-07-09T12:13:12;1.75;;;0.30;;
77736;SDS011;66903;59.926;30.404;2023-07-09T12:18:13;0.28;;;0.20;;
77736;SDS011;66903;59.926;30.404;2023-07-09T12:23:29;0.30;;;0.30;;
77736;SDS011;66903;59.926;30.404;2023-07-09T12:34:51;0.43;;;0.20;;
77736;SDS011;66903;59.926;30.404;2023-07-09T12:40:12;3.05;;;0.40;;
77736;SDS011;66903;59.926;30.404;2023-07-09T12:45:51;0.70;;;0.30;;
77736;SDS011;66903;59.926;30.404;2023-07-09T12:50:56;0.80;;;0.45;;
77736;SDS011;66903;59.926;30.404;2023-07-09T13:01:17;0.85;;;0.40;;
77736;SDS011;66903;59.926;30.404;2023-07-09T13:06:28;0.32;;;0.20;;
77736;SDS011;66903;59.926;30.404;2023-07-09T13:11:49;1.10;;;0.43;;
77736;SDS011;66903;59.926;30.404;2023-07-09T13:16:49;0.30;;;0.30;;
77736;SDS011;66903;59.926;30.404;2023-07-09T13:22:11;0.93;;;0.40;;
77736;SDS011;66903;59.926;30.404;2023-07-09T13:27:15;0.52;;;0.30;;
77736;SDS011;66903;59.926;30.404;2023-07-09T13:37:53;1.80;;;0.52;;
77736;SDS011;66903;59.926;30.404;2023-07-09T13:42:53;3.25;;;0.80;;
77736;SDS011;66903;59.926;30.404;2023-07-09T13:47:55;0.40;;;0.30;;
77736;SDS011;66903;59.926;30.404;2023-07-09T13:52:55;1.95;;;0.40;;
77736;SDS011;66903;59.926;30.404;2023-07-09T14:08:54;0.82;;;0.30;;
77736;SDS011;66903;59.926;30.404;2023-07-09T14:13:55;1.33;;;0.35;;
77736;SDS011;66903;59.926;30.404;2023-07-09T14:18:55;4.18;;;0.55;;
77736;SDS011;66903;59.926;30.404;2023-07-09T14:23:56;2.28;;;0.85;;
77736;SDS011;66903;59.926;30.404;2023-07-09T14:39:39;0.93;;;0.38;;
77736;SDS011;66903;59.926;30.404;2023-07-09T14:49:58;1.05;;;0.50;;
77736;SDS011;66903;59.926;30.404;2023-07-09T15:00:21;0.73;;;0.30;;
77736;SDS011;66903;59.926;30.404;2023-07-09T15:11:02;1.95;;;0.45;;
77736;SDS011;66903;59.926;30.404;2023-07-09T15:16:21;6.93;;;0.80;;
77736;SDS011;66903;59.926;30.404;2023-07-09T15:21:22;2.65;;;0.40;;
77736;SDS011;66903;59.926;30.404;2023-07-09T15:26:23;2.20;;;0.50;;
77736;SDS011;66903;59.926;30.404;2023-07-09T15:31:23;2.17;;;0.32;;
77736;SDS011;66903;59.926;30.404;2023-07-09T15:36:24;1.27;;;0.38;;
77736;SDS011;66903;59.926;30.404;2023-07-09T15:41:24;1.45;;;0.35;;
77736;SDS011;66903;59.926;30.404;2023-07-09T15:46:25;5.38;;;0.68;;
77736;SDS011;66903;59.926;30.404;2023-07-09T15:51:25;1.88;;;0.55;;
77736;SDS011;66903;59.926;30.404;2023-07-09T15:56:26;1.70;;;0.38;;
77736;SDS011;66903;59.926;30.404;2023-07-09T16:01:29;3.85;;;1.08;;
77736;SDS011;66903;59.926;30.404;2023-07-09T16:06:48;86.68;;;20.60;;
77736;SDS011;66903;59.926;30.404;2023-07-09T16:11:52;233.85;;;80.07;;
77736;SDS011;66903;59.926;30.404;2023-07-09T16:16:54;399.10;;;183.18;;
77736;SDS011;66903;59.926;30.404;2023-07-09T16:22:00;364.30;;;176.07;;
77736;SDS011;66903;59.926;30.404;2023-07-09T16:27:05;317.80;;;149.02;;
77736;SDS011;66903;59.926;30.404;2023-07-09T16:32:06;308.50;;;148.95;;
77736;SDS011;66903;59.926;30.404;2023-07-09T16:37:13;268.45;;;129.07;;
77736;SDS011;66903;59.926;30.404;2023-07-09T16:47:39;197.63;;;90.85;;
77736;SDS011;66903;59.926;30.404;2023-07-09T16:52:41;195.95;;;86.03;;
77736;SDS011;66903;59.926;30.404;2023-07-09T16:57:42;152.80;;;68.93;;
77736;SDS011;66903;59.926;30.404;2023-07-09T17:02:43;137.20;;;62.17;;
77736;SDS011;66903;59.926;30.404;2023-07-09T17:07:43;105.28;;;49.63;;
77736;SDS011;66903;59.926;30.404;2023-07-09T17:12:44;85.07;;;40.80;;
77736;SDS011;66903;59.926;30.404;2023-07-09T17:18:04;73.25;;;36.35;;
77736;SDS011;66903;59.926;30.404;2023-07-09T17:23:15;60.60;;;30.20;;
77736;SDS011;66903;59.926;30.404;2023-07-09T17:28:19;64.55;;;29.35;;
77736;SDS011;66903;59.926;30.404;2023-07-09T17:33:21;52.33;;;25.48;;
77736;SDS011;66903;59.926;30.404;2023-07-09T17:38:27;47.15;;;20.30;;
77736;SDS011;66903;59.926;30.404;2023-07-09T17:43:34;44.80;;;19.38;;
77736;SDS011;66903;59.926;30.404;2023-07-09T17:48:35;32.88;;;15.95;;
77736;SDS011;66903;59.926;30.404;2023-07-09T17:53:36;29.50;;;15.25;;
77736;SDS011;66903;59.926;30.404;2023-07-09T17:58:37;26.92;;;14.73;;
77736;SDS011;66903;59.926;30.404;2023-07-09T18:03:39;22.95;;;12.70;;
77736;SDS011;66903;59.926;30.404;2023-07-09T18:08:58;21.20;;;10.93;;
77736;SDS011;66903;59.926;30.404;2023-07-09T18:13:59;16.83;;;8.57;;
77736;SDS011;66903;59.926;30.404;2023-07-09T18:19:00;18.88;;;7.78;;
77736;SDS011;66903;59.926;30.404;2023-07-09T18:24:04;20.08;;;10.13;;
77736;SDS011;66903;59.926;30.404;2023-07-09T18:29:04;17.67;;;9.32;;
77736;SDS011;66903;59.926;30.404;2023-07-09T18:34:08;21.35;;;12.73;;
77736;SDS011;66903;59.926;30.404;2023-07-09T18:39:09;20.75;;;11.13;;
77736;SDS011;66903;59.926;30.404;2023-07-09T18:44:17;20.67;;;10.93;;
77736;SDS011;66903;59.926;30.404;2023-07-09T18:49:19;15.63;;;9.00;;
77736;SDS011;66903;59.926;30.404;2023-07-09T18:54:21;14.00;;;7.43;;
77736;SDS011;66903;59.926;30.404;2023-07-09T18:59:21;12.45;;;6.40;;
77736;SDS011;66903;59.926;30.404;2023-07-09T19:04:24;10.20;;;5.85;;
77736;SDS011;66903;59.926;30.404;2023-07-09T19:09:45;10.63;;;5.18;;
77736;SDS011;66903;59.926;30.404;2023-07-09T19:15:05;8.70;;;4.13;;
77736;SDS011;66903;59.926;30.404;2023-07-09T19:20:24;8.10;;;4.15;;
77736;SDS011;66903;59.926;30.404;2023-07-09T19:25:25;8.30;;;3.22;;
77736;SDS011;66903;59.926;30.404;2023-07-09T19:30:46;8.15;;;3.70;;
77736;SDS011;66903;59.926;30.404;2023-07-09T19:35:47;16.35;;;5.88;;
77736;SDS011;66903;59.926;30.404;2023-07-09T19:40:48;13.30;;;5.50;;
77736;SDS011;66903;59.926;30.404;2023-07-09T19:45:48;23.55;;;8.00;;
77736;SDS011;66903;59.926;30.404;2023-07-09T19:50:49;23.58;;;6.60;;
77736;SDS011;66903;59.926;30.404;2023-07-09T19:55:50;19.25;;;5.63;;
77736;SDS011;66903;59.926;30.404;2023-07-09T20:01:11;15.13;;;5.38;;
77736;SDS011;66903;59.926;30.404;2023-07-09T20:06:12;16.92;;;5.82;;
77736;SDS011;66903;59.926;30.404;2023-07-09T20:11:15;16.13;;;5.60;;
77736;SDS011;66903;59.926;30.404;2023-07-09T20:21:38;15.40;;;3.90;;
77736;SDS011;66903;59.926;30.404;2023-07-09T20:38:18;9.52;;;3.45;;
77736;SDS011;66903;59.926;30.404;2023-07-09T20:43:24;11.90;;;2.70;;
77736;SDS011;66903;59.926;30.404;2023-07-09T20:48:26;9.45;;;2.60;;
77736;SDS011;66903;59.926;30.404;2023-07-09T21:09:54;5.88;;;2.20;;
77736;SDS011;66903;59.926;30.404;2023-07-09T21:15:13;5.95;;;1.63;;
77736;SDS011;66903;59.926;30.404;2023-07-09T21:20:15;4.13;;;1.10;;
77736;SDS011;66903;59.926;30.404;2023-07-09T21:25:20;4.15;;;1.17;;
77736;SDS011;66903;59.926;30.404;2023-07-09T21:30:22;4.00;;;1.23;;
77736;SDS011;66903;59.926;30.404;2023-07-09T21:35:23;13.02;;;1.38;;
77736;SDS011;66903;59.926;30.404;2023-07-09T21:45:44;2.90;;;0.80;;
77736;SDS011;66903;59.926;30.404;2023-07-09T21:51:22;3.17;;;0.90;;
77736;SDS011;66903;59.926;30.404;2023-07-09T21:56:23;2.67;;;0.75;;
77736;SDS011;66903;59.926;30.404;2023-07-09T22:01:42;3.90;;;0.80;;
77736;SDS011;66903;59.926;30.404;2023-07-09T22:07:11;4.93;;;0.80;;
77736;SDS011;66903;59.926;30.404;2023-07-09T22:12:31;1.50;;;0.60;;
77736;SDS011;66903;59.926;30.404;2023-07-09T22:17:32;3.83;;;0.80;;
77736;SDS011;66903;59.926;30.404;2023-07-09T22:27:54;5.43;;;0.85;;
77736;SDS011;66903;59.926;30.404;2023-07-09T22:32:55;2.35;;;0.70;;
77736;SDS011;66903;59.926;30.404;2023-07-09T22:37:57;1.80;;;0.70;;
77736;SDS011;66903;59.926;30.404;2023-07-09T22:59:33;2.10;;;0.63;;
77736;SDS011;66903;59.926;30.404;2023-07-09T23:04:53;4.70;;;0.70;;
77736;SDS011;66903;59.926;30.404;2023-07-09T23:09:53;2.33;;;0.80;;
77736;SDS011;66903;59.926;30.404;2023-07-09T23:14:54;2.53;;;0.80;;
77736;SDS011;66903;59.926;30.404;2023-07-09T23:25:14;2.20;;;0.70;;
77736;SDS011;66903;59.926;30.404;2023-07-09T23:35:54;1.88;;;0.70;;
77736;SDS011;66903;59.926;30.404;2023-07-09T23:46:35;1.77;;;0.52;;
